• Join FlightAware (Why Join?)
  • Login
  • US Flag 
03:15AM EST


 

Airport Tracker/Info


-or-


 

Live Flight TrackerFlight Track Log ✈ SWA1307 ✈ 06-Jul-2013 ✈ KMDW - KDSM

Flight Track Log - Related Links

Times and Time Zones

All times are in EDT time to prevent confusion due to time zone crossing. See the SWA1307 flight status page for this flight to view local times or setup timezone preferences in your user account.

Time Position Orientation Groundspeed Altitude Reporting Facility
EDT Latitude Longitude Course Direction KTS MPH feet Rate Location/Type
07:17PM 41.7667 -87.8333 252° West 223 257 3,500  Level Chicago TRACON
07:18PM 41.7667 -87.9333 270° West 254 292 4,400 1,250 Climbing Chicago TRACON
07:19PM 41.7667 -88.0333 270° West 279 321 6,000 733 Climbing Chicago TRACON
07:20PM 41.7769 -88.1486 277° West 274 315 6,000 45 Level Chicago Center
07:21PM 41.7986 -88.2453 287° West 273 314 6,100 1,561 Climbing Chicago Center
07:22PM 41.8153 -88.3453 283° West 280 322 9,200 3,097 Climbing Chicago Center
07:23PM 41.8172 -88.4522 271° West 306 352 12,500 2,341 Climbing Chicago Center
07:24PM 41.8489 -88.5592 292° West 315 362 14,000 1,171 Climbing Chicago Center
07:25PM 41.8817 -88.6719 291° West 322 371 14,900 2,081 Climbing Chicago Center
07:26PM 41.8919 -88.8289 275° West 364 419 18,300 2,780 Climbing Chicago Center
07:27PM 41.8894 -88.9683 269° West 373 429 20,600 2,341 Climbing Chicago Center
07:28PM 41.8867 -89.1186 269° West 397 457 23,100 2,226 Climbing Chicago Center
07:29PM 41.8694 -89.2767 262° West 425 489 25,200 2,146 Climbing Chicago Center
07:30PM 41.8378 -89.4356 255° West 442 509 27,500 2,780 Climbing Chicago Center
07:31PM 41.8286 -89.5981 266° West 441 507 30,900 2,195 Climbing Chicago Center
07:32PM 41.8178 -89.7836 266° West 423 487 32,000 537 Climbing Chicago Center
07:33PM 41.8119 -89.9225 267° West 426 490 32,000  Level Chicago Center
07:34PM 41.8039 -90.0786 266° West 424 488 32,000  Level Chicago Center
07:35PM 41.7919 -90.2592 265° West 427 491 32,000  Level Chicago Center
07:36PM 41.7828 -90.4183 266° West 430 495 32,000  Level Chicago Center
07:37PM 41.7714 -90.5792 265° West 433 498 32,000  Level Chicago Center
07:38PM 41.7608 -90.7447 265° West 431 496 32,000  Level Chicago Center
07:39PM 41.7500 -90.9014 265° West 426 490 32,000  Level Chicago Center
07:40PM 41.7403 -91.0589 265° West 427 491 32,000  Level Chicago Center
07:41PM 41.7272 -91.2467 265° West 425 489 32,000  Level Chicago Center
07:42PM 41.7164 -91.4031 265° West 425 489 32,000  Level Chicago Center
07:43PM 41.7056 -91.5597 265° West 427 491 32,000  Level Chicago Center
07:44PM 41.6936 -91.7172 264° West 426 490 32,000 -871 Level Chicago Center
07:45PM 41.6825 -91.8719 265° West 423 487 30,200 -2,634 Descending Chicago Center
07:47PM 41.6703 -92.0311 264° West 430 495 26,600 -3,805 Descending Chicago Center
07:48PM 41.6531 -92.2286 263° West 444 511 22,400 -3,532 Descending Chicago Center
07:49PM 41.6414 -92.3947 265° West 448 516 19,300 -2,976 Descending Chicago Center
07:50PM 41.6292 -92.5528 264° West 441 507 16,300 -2,827 Descending Chicago Center
07:50PM 41.6222 -92.6589 265° West 429 494 14,400 -2,514 Descending Minneapolis Center
07:51PM 41.6222 -92.8003 270° West 399 459 11,900 -1,951 Descending Minneapolis Center
07:52PM 41.6231 -92.9306 271° West 373 429 10,400 -1,282 Descending Minneapolis Center
07:53PM 41.6311 -93.0203 277° West 301 346 9,700 -1,223 Descending Minneapolis Center
07:54PM 41.6328 -93.1261 271° West 290 334 8,300 -1,426 Descending Minneapolis Center
07:55PM 41.6367 -93.2314 273° West 280 322 6,800 -1,537 Descending Minneapolis Center
07:56PM 41.6422 -93.3314 274° West 274 315 5,200 -1,559 Descending Minneapolis Center
07:57PM 41.6508 -93.4475 276° West 273 314 3,500 -1,031 Descending Minneapolis Center
07:58PM 41.6450 -93.5344 265° West 239 275 3,000 -492 Descending Minneapolis Center
07:59PM 41.6347 -93.6133 260° West 212 244 2,500 -446 Descending Minneapolis Center
08:00PM 41.6125 -93.6683 242° Southwest 173 199 2,100 -397 Descending Minneapolis Center
08:01PM 41.5850 -93.7014 222° Southwest 135 155 1,700 -511 Descending Minneapolis Center
08:03PM 41.5428 -93.6706 151° Southeast 129 148 900 -600 Descending Minneapolis Center